sensor_id;sensor_type;location;lat;lon;timestamp;P1;durP1;ratioP1;P2;durP2;ratioP2
20711;SDS011;10517;50.742;4.224;2023-08-08T00:01:33;6.55;;;2.63;;
20711;SDS011;10517;50.742;4.224;2023-08-08T00:04:00;3.25;;;2.10;;
20711;SDS011;10517;50.742;4.224;2023-08-08T00:06:26;2.55;;;2.35;;
20711;SDS011;10517;50.742;4.224;2023-08-08T00:08:52;4.13;;;2.55;;
20711;SDS011;10517;50.742;4.224;2023-08-08T00:11:18;2.92;;;2.58;;
20711;SDS011;10517;50.742;4.224;2023-08-08T00:13:43;7.10;;;2.33;;
20711;SDS011;10517;50.742;4.224;2023-08-08T00:16:09;2.80;;;2.60;;
20711;SDS011;10517;50.742;4.224;2023-08-08T00:18:35;3.50;;;2.92;;
20711;SDS011;10517;50.742;4.224;2023-08-08T00:21:01;5.53;;;2.92;;
20711;SDS011;10517;50.742;4.224;2023-08-08T00:23:26;4.95;;;3.10;;
20711;SDS011;10517;50.742;4.224;2023-08-08T00:25:52;4.95;;;2.85;;
20711;SDS011;10517;50.742;4.224;2023-08-08T00:28:18;3.40;;;2.63;;
20711;SDS011;10517;50.742;4.224;2023-08-08T00:30:44;6.53;;;2.30;;
20711;SDS011;10517;50.742;4.224;2023-08-08T00:33:09;3.75;;;3.15;;
20711;SDS011;10517;50.742;4.224;2023-08-08T00:35:35;4.80;;;3.08;;
20711;SDS011;10517;50.742;4.224;2023-08-08T00:38:01;6.47;;;3.20;;
20711;SDS011;10517;50.742;4.224;2023-08-08T00:40:27;4.57;;;2.60;;
20711;SDS011;10517;50.742;4.224;2023-08-08T00:42:52;2.97;;;2.63;;
20711;SDS011;10517;50.742;4.224;2023-08-08T00:45:18;4.30;;;3.47;;
20711;SDS011;10517;50.742;4.224;2023-08-08T00:47:44;5.57;;;3.28;;
20711;SDS011;10517;50.742;4.224;2023-08-08T00:50:10;6.18;;;3.40;;
20711;SDS011;10517;50.742;4.224;2023-08-08T00:52:37;3.80;;;3.22;;
20711;SDS011;10517;50.742;4.224;2023-08-08T00:55:04;7.53;;;3.10;;
20711;SDS011;10517;50.742;4.224;2023-08-08T00:57:30;5.32;;;3.47;;
20711;SDS011;10517;50.742;4.224;2023-08-08T00:59:56;3.63;;;3.20;;
20711;SDS011;10517;50.742;4.224;2023-08-08T01:02:22;3.17;;;2.92;;
20711;SDS011;10517;50.742;4.224;2023-08-08T01:04:48;3.33;;;3.03;;
20711;SDS011;10517;50.742;4.224;2023-08-08T01:07:16;3.38;;;3.08;;
20711;SDS011;10517;50.742;4.224;2023-08-08T01:09:54;3.45;;;3.25;;
20711;SDS011;10517;50.742;4.224;2023-08-08T01:12:31;3.67;;;3.33;;
20711;SDS011;10517;50.742;4.224;2023-08-08T01:14:58;4.47;;;3.47;;
20711;SDS011;10517;50.742;4.224;2023-08-08T01:17:24;3.58;;;3.35;;
20711;SDS011;10517;50.742;4.224;2023-08-08T01:19:51;3.78;;;3.40;;
20711;SDS011;10517;50.742;4.224;2023-08-08T01:22:24;4.10;;;3.75;;
20711;SDS011;10517;50.742;4.224;2023-08-08T01:24:54;4.85;;;3.72;;
20711;SDS011;10517;50.742;4.224;2023-08-08T01:27:21;4.45;;;3.67;;
20711;SDS011;10517;50.742;4.224;2023-08-08T01:29:48;8.15;;;4.03;;
20711;SDS011;10517;50.742;4.224;2023-08-08T01:32:14;6.05;;;4.00;;
20711;SDS011;10517;50.742;4.224;2023-08-08T01:34:39;4.25;;;3.88;;
20711;SDS011;10517;50.742;4.224;2023-08-08T01:37:17;6.10;;;4.10;;
20711;SDS011;10517;50.742;4.224;2023-08-08T01:39:55;6.97;;;4.20;;
20711;SDS011;10517;50.742;4.224;2023-08-08T01:42:25;11.45;;;3.80;;
20711;SDS011;10517;50.742;4.224;2023-08-08T01:44:54;6.13;;;4.32;;
20711;SDS011;10517;50.742;4.224;2023-08-08T01:47:21;4.40;;;3.58;;
20711;SDS011;10517;50.742;4.224;2023-08-08T01:49:47;4.55;;;4.07;;
20711;SDS011;10517;50.742;4.224;2023-08-08T01:52:13;5.03;;;4.70;;
20711;SDS011;10517;50.742;4.224;2023-08-08T01:54:39;6.10;;;4.20;;
20711;SDS011;10517;50.742;4.224;2023-08-08T01:57:05;9.10;;;4.60;;
20711;SDS011;10517;50.742;4.224;2023-08-08T01:59:31;5.60;;;4.15;;
20711;SDS011;10517;50.742;4.224;2023-08-08T02:01:56;13.48;;;4.75;;
20711;SDS011;10517;50.742;4.224;2023-08-08T02:04:22;4.55;;;4.22;;
20711;SDS011;10517;50.742;4.224;2023-08-08T02:06:48;5.55;;;5.05;;
20711;SDS011;10517;50.742;4.224;2023-08-08T02:09:14;4.07;;;3.83;;
20711;SDS011;10517;50.742;4.224;2023-08-08T02:11:40;5.85;;;4.63;;
20711;SDS011;10517;50.742;4.224;2023-08-08T02:14:06;4.97;;;4.55;;
20711;SDS011;10517;50.742;4.224;2023-08-08T02:16:32;5.05;;;4.70;;
20711;SDS011;10517;50.742;4.224;2023-08-08T02:18:59;5.38;;;4.30;;
20711;SDS011;10517;50.742;4.224;2023-08-08T02:21:25;6.10;;;4.45;;
20711;SDS011;10517;50.742;4.224;2023-08-08T02:23:51;8.23;;;4.60;;
20711;SDS011;10517;50.742;4.224;2023-08-08T02:26:17;8.15;;;4.40;;
20711;SDS011;10517;50.742;4.224;2023-08-08T02:28:43;5.80;;;4.57;;
20711;SDS011;10517;50.742;4.224;2023-08-08T02:31:09;4.93;;;4.40;;
20711;SDS011;10517;50.742;4.224;2023-08-08T02:33:35;5.05;;;4.30;;
20711;SDS011;10517;50.742;4.224;2023-08-08T02:36:00;8.60;;;4.55;;
20711;SDS011;10517;50.742;4.224;2023-08-08T02:38:27;5.57;;;5.03;;
20711;SDS011;10517;50.742;4.224;2023-08-08T02:40:52;4.78;;;4.43;;
20711;SDS011;10517;50.742;4.224;2023-08-08T02:43:18;5.18;;;4.72;;
20711;SDS011;10517;50.742;4.224;2023-08-08T02:45:44;4.63;;;4.30;;
20711;SDS011;10517;50.742;4.224;2023-08-08T02:48:10;6.55;;;5.05;;
20711;SDS011;10517;50.742;4.224;2023-08-08T02:50:35;4.55;;;4.15;;
20711;SDS011;10517;50.742;4.224;2023-08-08T02:53:01;5.40;;;4.32;;
20711;SDS011;10517;50.742;4.224;2023-08-08T02:55:27;9.20;;;4.85;;
20711;SDS011;10517;50.742;4.224;2023-08-08T02:57:53;10.00;;;5.40;;
20711;SDS011;10517;50.742;4.224;2023-08-08T03:00:18;6.85;;;5.50;;
20711;SDS011;10517;50.742;4.224;2023-08-08T03:02:44;6.05;;;4.47;;
20711;SDS011;10517;50.742;4.224;2023-08-08T03:05:10;8.95;;;5.60;;
20711;SDS011;10517;50.742;4.224;2023-08-08T03:07:36;5.90;;;5.20;;
20711;SDS011;10517;50.742;4.224;2023-08-08T03:10:02;9.68;;;5.25;;
20711;SDS011;10517;50.742;4.224;2023-08-08T03:12:28;10.13;;;5.13;;
20711;SDS011;10517;50.742;4.224;2023-08-08T03:14:54;13.05;;;5.65;;
20711;SDS011;10517;50.742;4.224;2023-08-08T03:17:19;14.13;;;5.45;;
20711;SDS011;10517;50.742;4.224;2023-08-08T03:19:45;7.03;;;5.47;;
20711;SDS011;10517;50.742;4.224;2023-08-08T03:22:11;5.65;;;5.03;;
20711;SDS011;10517;50.742;4.224;2023-08-08T03:24:37;8.05;;;5.38;;
20711;SDS011;10517;50.742;4.224;2023-08-08T03:27:02;7.05;;;5.93;;
20711;SDS011;10517;50.742;4.224;2023-08-08T03:29:29;8.38;;;5.18;;
20711;SDS011;10517;50.742;4.224;2023-08-08T03:31:54;7.82;;;5.40;;
20711;SDS011;10517;50.742;4.224;2023-08-08T03:34:20;9.13;;;5.38;;
20711;SDS011;10517;50.742;4.224;2023-08-08T03:36:45;8.45;;;5.95;;
20711;SDS011;10517;50.742;4.224;2023-08-08T03:39:11;7.82;;;4.90;;
20711;SDS011;10517;50.742;4.224;2023-08-08T03:41:37;15.95;;;5.53;;
20711;SDS011;10517;50.742;4.224;2023-08-08T03:44:03;10.68;;;5.50;;
20711;SDS011;10517;50.742;4.224;2023-08-08T03:46:29;6.45;;;5.90;;
20711;SDS011;10517;50.742;4.224;2023-08-08T03:48:55;5.63;;;5.32;;
20711;SDS011;10517;50.742;4.224;2023-08-08T03:51:21;7.93;;;5.88;;
20711;SDS011;10517;50.742;4.224;2023-08-08T03:53:46;8.75;;;5.80;;
20711;SDS011;10517;50.742;4.224;2023-08-08T03:56:12;7.70;;;5.43;;
20711;SDS011;10517;50.742;4.224;2023-08-08T03:58:38;12.82;;;6.20;;
20711;SDS011;10517;50.742;4.224;2023-08-08T04:01:04;13.57;;;5.30;;
20711;SDS011;10517;50.742;4.224;2023-08-08T04:03:30;6.03;;;5.43;;
20711;SDS011;10517;50.742;4.224;2023-08-08T04:05:55;12.98;;;6.55;;
20711;SDS011;10517;50.742;4.224;2023-08-08T04:08:21;8.90;;;6.68;;
20711;SDS011;10517;50.742;4.224;2023-08-08T04:10:47;10.02;;;5.82;;
20711;SDS011;10517;50.742;4.224;2023-08-08T04:13:13;11.50;;;6.05;;
20711;SDS011;10517;50.742;4.224;2023-08-08T04:15:39;11.18;;;6.18;;
20711;SDS011;10517;50.742;4.224;2023-08-08T04:18:04;16.90;;;5.80;;
20711;SDS011;10517;50.742;4.224;2023-08-08T04:20:32;8.10;;;5.85;;
20711;SDS011;10517;50.742;4.224;2023-08-08T04:22:58;8.93;;;6.45;;
20711;SDS011;10517;50.742;4.224;2023-08-08T04:25:25;7.65;;;6.55;;
20711;SDS011;10517;50.742;4.224;2023-08-08T04:27:52;10.10;;;6.15;;
20711;SDS011;10517;50.742;4.224;2023-08-08T04:30:18;9.73;;;5.38;;
20711;SDS011;10517;50.742;4.224;2023-08-08T04:32:44;11.43;;;6.10;;
20711;SDS011;10517;50.742;4.224;2023-08-08T04:35:10;10.98;;;5.82;;
20711;SDS011;10517;50.742;4.224;2023-08-08T04:37:36;6.85;;;5.05;;
20711;SDS011;10517;50.742;4.224;2023-08-08T04:40:01;6.90;;;6.30;;
20711;SDS011;10517;50.742;4.224;2023-08-08T04:42:28;11.35;;;6.00;;
20711;SDS011;10517;50.742;4.224;2023-08-08T04:44:54;9.13;;;6.18;;
20711;SDS011;10517;50.742;4.224;2023-08-08T04:47:20;13.23;;;6.82;;
20711;SDS011;10517;50.742;4.224;2023-08-08T04:49:45;9.38;;;6.43;;
20711;SDS011;10517;50.742;4.224;2023-08-08T04:52:11;8.13;;;7.25;;
20711;SDS011;10517;50.742;4.224;2023-08-08T04:54:37;8.77;;;5.85;;
20711;SDS011;10517;50.742;4.224;2023-08-08T04:57:03;6.30;;;5.80;;
20711;SDS011;10517;50.742;4.224;2023-08-08T04:59:29;16.00;;;6.90;;
20711;SDS011;10517;50.742;4.224;2023-08-08T05:01:54;10.07;;;6.72;;
20711;SDS011;10517;50.742;4.224;2023-08-08T05:04:20;10.30;;;5.82;;
20711;SDS011;10517;50.742;4.224;2023-08-08T05:06:46;8.52;;;5.82;;
20711;SDS011;10517;50.742;4.224;2023-08-08T05:09:12;6.93;;;6.47;;
20711;SDS011;10517;50.742;4.224;2023-08-08T05:11:38;8.10;;;7.15;;
20711;SDS011;10517;50.742;4.224;2023-08-08T05:14:03;13.25;;;6.70;;
20711;SDS011;10517;50.742;4.224;2023-08-08T05:16:29;10.43;;;6.68;;
20711;SDS011;10517;50.742;4.224;2023-08-08T05:18:55;17.88;;;7.57;;
20711;SDS011;10517;50.742;4.224;2023-08-08T05:21:21;18.48;;;7.15;;
20711;SDS011;10517;50.742;4.224;2023-08-08T05:23:47;7.07;;;6.50;;
20711;SDS011;10517;50.742;4.224;2023-08-08T05:26:13;11.88;;;7.45;;
20711;SDS011;10517;50.742;4.224;2023-08-08T05:28:39;12.10;;;7.25;;
20711;SDS011;10517;50.742;4.224;2023-08-08T05:31:05;16.05;;;7.95;;
20711;SDS011;10517;50.742;4.224;2023-08-08T05:33:31;9.88;;;6.63;;
20711;SDS011;10517;50.742;4.224;2023-08-08T05:35:58;12.98;;;6.57;;
20711;SDS011;10517;50.742;4.224;2023-08-08T05:38:23;18.73;;;7.07;;
20711;SDS011;10517;50.742;4.224;2023-08-08T05:40:49;7.93;;;6.55;;
20711;SDS011;10517;50.742;4.224;2023-08-08T05:43:15;10.80;;;7.18;;
20711;SDS011;10517;50.742;4.224;2023-08-08T05:45:43;12.60;;;7.85;;
20711;SDS011;10517;50.742;4.224;2023-08-08T05:48:10;12.32;;;7.07;;
20711;SDS011;10517;50.742;4.224;2023-08-08T05:50:37;7.15;;;6.60;;
20711;SDS011;10517;50.742;4.224;2023-08-08T05:53:06;13.30;;;7.38;;
20711;SDS011;10517;50.742;4.224;2023-08-08T05:55:32;8.10;;;6.80;;
20711;SDS011;10517;50.742;4.224;2023-08-08T05:57:58;12.68;;;7.05;;
20711;SDS011;10517;50.742;4.224;2023-08-08T06:00:24;12.18;;;6.63;;
20711;SDS011;10517;50.742;4.224;2023-08-08T06:02:50;10.18;;;6.65;;
20711;SDS011;10517;50.742;4.224;2023-08-08T06:05:16;7.05;;;6.45;;
20711;SDS011;10517;50.742;4.224;2023-08-08T06:07:42;13.40;;;7.35;;
20711;SDS011;10517;50.742;4.224;2023-08-08T06:10:09;13.95;;;7.15;;
20711;SDS011;10517;50.742;4.224;2023-08-08T06:12:35;12.50;;;7.00;;
20711;SDS011;10517;50.742;4.224;2023-08-08T06:15:01;12.95;;;7.95;;
20711;SDS011;10517;50.742;4.224;2023-08-08T06:17:28;7.50;;;6.80;;
20711;SDS011;10517;50.742;4.224;2023-08-08T06:19:54;8.88;;;7.93;;
20711;SDS011;10517;50.742;4.224;2023-08-08T06:22:22;20.08;;;7.65;;
20711;SDS011;10517;50.742;4.224;2023-08-08T06:24:48;12.73;;;6.97;;
20711;SDS011;10517;50.742;4.224;2023-08-08T06:27:14;12.93;;;6.68;;
20711;SDS011;10517;50.742;4.224;2023-08-08T06:29:40;11.20;;;6.60;;
20711;SDS011;10517;50.742;4.224;2023-08-08T06:32:05;6.32;;;5.25;;
20711;SDS011;10517;50.742;4.224;2023-08-08T06:34:31;13.68;;;5.35;;
20711;SDS011;10517;50.742;4.224;2023-08-08T06:36:57;10.20;;;4.80;;
20711;SDS011;10517;50.742;4.224;2023-08-08T06:39:23;9.75;;;3.85;;
20711;SDS011;10517;50.742;4.224;2023-08-08T06:41:49;8.82;;;4.60;;
20711;SDS011;10517;50.742;4.224;2023-08-08T06:44:14;13.90;;;4.95;;
20711;SDS011;10517;50.742;4.224;2023-08-08T06:46:40;8.88;;;3.70;;
20711;SDS011;10517;50.742;4.224;2023-08-08T06:49:06;12.30;;;4.07;;
20711;SDS011;10517;50.742;4.224;2023-08-08T06:51:33;5.97;;;3.63;;
20711;SDS011;10517;50.742;4.224;2023-08-08T06:54:00;8.50;;;3.10;;
20711;SDS011;10517;50.742;4.224;2023-08-08T06:56:26;7.20;;;2.50;;
20711;SDS011;10517;50.742;4.224;2023-08-08T06:58:52;6.57;;;2.78;;
20711;SDS011;10517;50.742;4.224;2023-08-08T07:01:18;2.97;;;2.30;;
20711;SDS011;10517;50.742;4.224;2023-08-08T07:03:44;3.03;;;2.22;;
20711;SDS011;10517;50.742;4.224;2023-08-08T07:06:11;9.50;;;3.00;;
20711;SDS011;10517;50.742;4.224;2023-08-08T07:08:37;8.15;;;2.17;;
20711;SDS011;10517;50.742;4.224;2023-08-08T07:11:04;7.70;;;2.40;;
20711;SDS011;10517;50.742;4.224;2023-08-08T07:13:33;8.48;;;3.53;;
20711;SDS011;10517;50.742;4.224;2023-08-08T07:15:59;5.60;;;2.30;;
20711;SDS011;10517;50.742;4.224;2023-08-08T07:18:26;5.10;;;2.63;;
20711;SDS011;10517;50.742;4.224;2023-08-08T07:20:52;5.97;;;2.45;;
20711;SDS011;10517;50.742;4.224;2023-08-08T07:23:18;7.85;;;2.08;;
20711;SDS011;10517;50.742;4.224;2023-08-08T07:25:44;4.95;;;2.15;;
20711;SDS011;10517;50.742;4.224;2023-08-08T07:28:10;9.88;;;2.63;;
20711;SDS011;10517;50.742;4.224;2023-08-08T07:30:36;5.68;;;2.40;;
20711;SDS011;10517;50.742;4.224;2023-08-08T07:33:02;4.72;;;2.15;;
20711;SDS011;10517;50.742;4.224;2023-08-08T07:35:28;7.85;;;2.10;;
20711;SDS011;10517;50.742;4.224;2023-08-08T07:37:53;7.20;;;2.05;;
20711;SDS011;10517;50.742;4.224;2023-08-08T07:40:19;6.55;;;2.33;;
20711;SDS011;10517;50.742;4.224;2023-08-08T07:42:46;7.43;;;2.03;;
20711;SDS011;10517;50.742;4.224;2023-08-08T07:45:13;8.57;;;2.75;;
20711;SDS011;10517;50.742;4.224;2023-08-08T07:47:39;3.88;;;1.88;;
20711;SDS011;10517;50.742;4.224;2023-08-08T07:50:05;3.72;;;1.98;;
20711;SDS011;10517;50.742;4.224;2023-08-08T07:52:37;6.10;;;2.15;;
20711;SDS011;10517;50.742;4.224;2023-08-08T07:55:04;6.53;;;2.45;;
20711;SDS011;10517;50.742;4.224;2023-08-08T07:57:31;7.43;;;2.92;;
20711;SDS011;10517;50.742;4.224;2023-08-08T07:59:59;2.33;;;2.13;;
20711;SDS011;10517;50.742;4.224;2023-08-08T08:02:31;7.32;;;2.33;;
20711;SDS011;10517;50.742;4.224;2023-08-08T08:04:57;10.02;;;2.17;;
20711;SDS011;10517;50.742;4.224;2023-08-08T08:07:23;5.10;;;1.70;;
20711;SDS011;10517;50.742;4.224;2023-08-08T08:09:49;6.32;;;2.08;;
20711;SDS011;10517;50.742;4.224;2023-08-08T08:12:15;3.28;;;1.98;;
20711;SDS011;10517;50.742;4.224;2023-08-08T08:14:40;2.53;;;1.77;;
20711;SDS011;10517;50.742;4.224;2023-08-08T08:17:06;3.75;;;2.45;;
20711;SDS011;10517;50.742;4.224;2023-08-08T08:19:32;2.90;;;1.92;;
20711;SDS011;10517;50.742;4.224;2023-08-08T08:21:58;2.20;;;1.52;;
20711;SDS011;10517;50.742;4.224;2023-08-08T08:24:24;9.82;;;2.50;;
20711;SDS011;10517;50.742;4.224;2023-08-08T08:26:49;5.00;;;1.92;;
20711;SDS011;10517;50.742;4.224;2023-08-08T08:29:15;1.83;;;1.48;;
20711;SDS011;10517;50.742;4.224;2023-08-08T08:31:41;3.83;;;2.20;;
20711;SDS011;10517;50.742;4.224;2023-08-08T08:34:06;4.90;;;2.00;;
20711;SDS011;10517;50.742;4.224;2023-08-08T08:36:32;3.40;;;1.60;;
20711;SDS011;10517;50.742;4.224;2023-08-08T08:38:58;3.60;;;2.08;;
20711;SDS011;10517;50.742;4.224;2023-08-08T08:41:25;3.70;;;2.38;;
20711;SDS011;10517;50.742;4.224;2023-08-08T08:43:53;4.57;;;1.92;;
20711;SDS011;10517;50.742;4.224;2023-08-08T08:46:20;4.32;;;2.10;;
20711;SDS011;10517;50.742;4.224;2023-08-08T08:48:50;4.18;;;2.05;;
20711;SDS011;10517;50.742;4.224;2023-08-08T08:51:20;7.07;;;2.10;;
20711;SDS011;10517;50.742;4.224;2023-08-08T08:53:46;6.28;;;2.30;;
20711;SDS011;10517;50.742;4.224;2023-08-08T08:56:13;2.78;;;2.08;;
20711;SDS011;10517;50.742;4.224;2023-08-08T08:58:39;4.75;;;2.00;;
20711;SDS011;10517;50.742;4.224;2023-08-08T09:01:08;4.15;;;2.25;;
20711;SDS011;10517;50.742;4.224;2023-08-08T09:03:35;6.97;;;2.60;;
20711;SDS011;10517;50.742;4.224;2023-08-08T09:06:02;2.63;;;2.20;;
20711;SDS011;10517;50.742;4.224;2023-08-08T09:08:29;8.13;;;2.67;;
20711;SDS011;10517;50.742;4.224;2023-08-08T09:10:55;3.20;;;2.88;;
20711;SDS011;10517;50.742;4.224;2023-08-08T09:13:22;5.22;;;4.25;;
20711;SDS011;10517;50.742;4.224;2023-08-08T09:15:50;2.88;;;2.30;;
20711;SDS011;10517;50.742;4.224;2023-08-08T09:18:17;3.38;;;2.40;;
20711;SDS011;10517;50.742;4.224;2023-08-08T09:20:48;3.50;;;2.45;;
20711;SDS011;10517;50.742;4.224;2023-08-08T09:23:14;5.22;;;2.35;;
20711;SDS011;10517;50.742;4.224;2023-08-08T09:25:40;2.17;;;1.92;;
20711;SDS011;10517;50.742;4.224;2023-08-08T09:28:06;3.58;;;2.15;;
20711;SDS011;10517;50.742;4.224;2023-08-08T09:30:32;4.95;;;2.10;;
20711;SDS011;10517;50.742;4.224;2023-08-08T09:32:58;4.25;;;2.55;;
20711;SDS011;10517;50.742;4.224;2023-08-08T09:35:26;3.90;;;2.40;;
20711;SDS011;10517;50.742;4.224;2023-08-08T09:37:54;4.95;;;2.22;;
20711;SDS011;10517;50.742;4.224;2023-08-08T09:40:20;5.30;;;2.15;;
20711;SDS011;10517;50.742;4.224;2023-08-08T09:42:47;2.75;;;2.60;;
20711;SDS011;10517;50.742;4.224;2023-08-08T09:45:15;3.22;;;2.22;;
20711;SDS011;10517;50.742;4.224;2023-08-08T09:47:41;4.65;;;2.30;;
20711;SDS011;10517;50.742;4.224;2023-08-08T09:50:07;3.00;;;2.38;;
20711;SDS011;10517;50.742;4.224;2023-08-08T09:52:34;3.15;;;2.85;;
20711;SDS011;10517;50.742;4.224;2023-08-08T09:55:01;3.88;;;2.50;;
20711;SDS011;10517;50.742;4.224;2023-08-08T09:57:27;2.90;;;2.60;;
20711;SDS011;10517;50.742;4.224;2023-08-08T09:59:53;3.55;;;2.30;;
20711;SDS011;10517;50.742;4.224;2023-08-08T10:02:21;2.60;;;2.40;;
20711;SDS011;10517;50.742;4.224;2023-08-08T10:04:47;2.70;;;2.50;;
20711;SDS011;10517;50.742;4.224;2023-08-08T10:07:13;3.53;;;2.40;;
20711;SDS011;10517;50.742;4.224;2023-08-08T10:09:40;3.50;;;2.40;;
20711;SDS011;10517;50.742;4.224;2023-08-08T10:12:06;3.13;;;2.50;;
20711;SDS011;10517;50.742;4.224;2023-08-08T10:14:37;3.95;;;2.53;;
20711;SDS011;10517;50.742;4.224;2023-08-08T10:17:06;4.90;;;2.92;;
20711;SDS011;10517;50.742;4.224;2023-08-08T10:19:32;5.15;;;3.08;;
20711;SDS011;10517;50.742;4.224;2023-08-08T10:22:00;6.20;;;2.55;;
20711;SDS011;10517;50.742;4.224;2023-08-08T10:24:35;2.50;;;2.30;;
20711;SDS011;10517;50.742;4.224;2023-08-08T10:27:01;2.88;;;2.45;;
20711;SDS011;10517;50.742;4.224;2023-08-08T10:29:30;6.13;;;2.67;;
20711;SDS011;10517;50.742;4.224;2023-08-08T10:32:04;2.80;;;2.60;;
20711;SDS011;10517;50.742;4.224;2023-08-08T10:34:41;5.97;;;2.55;;
20711;SDS011;10517;50.742;4.224;2023-08-08T10:37:11;3.67;;;2.50;;
20711;SDS011;10517;50.742;4.224;2023-08-08T10:39:48;4.35;;;3.30;;
20711;SDS011;10517;50.742;4.224;2023-08-08T10:42:24;6.68;;;4.70;;
20711;SDS011;10517;50.742;4.224;2023-08-08T10:44:54;4.63;;;2.92;;
20711;SDS011;10517;50.742;4.224;2023-08-08T10:47:22;5.13;;;2.80;;
20711;SDS011;10517;50.742;4.224;2023-08-08T11:00:25;7.82;;;2.53;;
20711;SDS011;10517;50.742;4.224;2023-08-08T11:02:54;2.65;;;2.20;;
20711;SDS011;10517;50.742;4.224;2023-08-08T11:05:21;6.20;;;2.35;;
20711;SDS011;10517;50.742;4.224;2023-08-08T11:07:48;4.57;;;2.13;;
20711;SDS011;10517;50.742;4.224;2023-08-08T11:10:14;5.22;;;2.00;;
20711;SDS011;10517;50.742;4.224;2023-08-08T11:12:39;2.88;;;2.67;;
20711;SDS011;10517;50.742;4.224;2023-08-08T11:15:05;2.67;;;2.47;;
20711;SDS011;10517;50.742;4.224;2023-08-08T11:17:32;2.90;;;2.70;;
20711;SDS011;10517;50.742;4.224;2023-08-08T11:19:57;2.70;;;2.60;;
20711;SDS011;10517;50.742;4.224;2023-08-08T11:22:23;2.78;;;2.58;;
20711;SDS011;10517;50.742;4.224;2023-08-08T11:24:49;2.95;;;2.60;;
20711;SDS011;10517;50.742;4.224;2023-08-08T11:27:16;2.72;;;2.33;;
20711;SDS011;10517;50.742;4.224;2023-08-08T11:29:51;2.55;;;2.45;;
20711;SDS011;10517;50.742;4.224;2023-08-08T11:32:17;3.30;;;2.30;;
20711;SDS011;10517;50.742;4.224;2023-08-08T11:34:43;5.03;;;2.60;;
20711;SDS011;10517;50.742;4.224;2023-08-08T11:37:11;2.78;;;2.53;;
20711;SDS011;10517;50.742;4.224;2023-08-08T11:39:40;2.67;;;2.45;;
20711;SDS011;10517;50.742;4.224;2023-08-08T11:42:06;2.45;;;2.20;;
20711;SDS011;10517;50.742;4.224;2023-08-08T11:44:32;2.30;;;2.20;;
20711;SDS011;10517;50.742;4.224;2023-08-08T11:47:01;2.80;;;2.60;;
20711;SDS011;10517;50.742;4.224;2023-08-08T11:49:28;11.55;;;2.80;;
20711;SDS011;10517;50.742;4.224;2023-08-08T11:51:54;2.72;;;2.53;;
20711;SDS011;10517;50.742;4.224;2023-08-08T11:54:26;2.70;;;2.38;;
20711;SDS011;10517;50.742;4.224;2023-08-08T11:56:53;3.72;;;2.65;;
20711;SDS011;10517;50.742;4.224;2023-08-08T11:59:19;5.35;;;2.20;;
20711;SDS011;10517;50.742;4.224;2023-08-08T12:01:45;2.53;;;2.30;;
20711;SDS011;10517;50.742;4.224;2023-08-08T12:04:11;3.08;;;2.47;;
20711;SDS011;10517;50.742;4.224;2023-08-08T12:06:37;2.42;;;2.33;;
20711;SDS011;10517;50.742;4.224;2023-08-08T12:09:13;5.68;;;2.47;;
20711;SDS011;10517;50.742;4.224;2023-08-08T12:11:39;2.60;;;2.40;;
20711;SDS011;10517;50.742;4.224;2023-08-08T12:14:06;2.40;;;2.30;;
20711;SDS011;10517;50.742;4.224;2023-08-08T12:16:37;2.53;;;2.35;;
20711;SDS011;10517;50.742;4.224;2023-08-08T12:19:04;2.45;;;2.35;;
20711;SDS011;10517;50.742;4.224;2023-08-08T12:21:34;2.70;;;2.50;;
20711;SDS011;10517;50.742;4.224;2023-08-08T12:23:59;3.05;;;2.55;;
20711;SDS011;10517;50.742;4.224;2023-08-08T12:26:25;2.50;;;2.30;;
20711;SDS011;10517;50.742;4.224;2023-08-08T12:28:51;2.70;;;2.50;;
20711;SDS011;10517;50.742;4.224;2023-08-08T12:31:19;2.58;;;2.47;;
20711;SDS011;10517;50.742;4.224;2023-08-08T12:33:45;2.30;;;2.20;;
20711;SDS011;10517;50.742;4.224;2023-08-08T12:36:11;7.40;;;3.00;;
20711;SDS011;10517;50.742;4.224;2023-08-08T12:38:37;2.50;;;2.35;;
20711;SDS011;10517;50.742;4.224;2023-08-08T12:41:03;2.95;;;2.30;;
20711;SDS011;10517;50.742;4.224;2023-08-08T12:43:29;3.47;;;2.30;;
20711;SDS011;10517;50.742;4.224;2023-08-08T12:45:54;2.50;;;2.40;;
20711;SDS011;10517;50.742;4.224;2023-08-08T12:48:20;2.30;;;2.20;;
20711;SDS011;10517;50.742;4.224;2023-08-08T12:50:46;2.15;;;2.05;;
20711;SDS011;10517;50.742;4.224;2023-08-08T12:53:12;2.30;;;2.20;;
20711;SDS011;10517;50.742;4.224;2023-08-08T12:55:39;2.50;;;2.30;;
20711;SDS011;10517;50.742;4.224;2023-08-08T12:58:05;2.35;;;2.15;;
20711;SDS011;10517;50.742;4.224;2023-08-08T13:00:31;3.92;;;2.50;;
20711;SDS011;10517;50.742;4.224;2023-08-08T13:02:57;2.45;;;2.30;;
20711;SDS011;10517;50.742;4.224;2023-08-08T13:05:23;2.50;;;2.30;;
20711;SDS011;10517;50.742;4.224;2023-08-08T13:07:49;2.58;;;2.30;;
20711;SDS011;10517;50.742;4.224;2023-08-08T13:10:14;2.92;;;2.25;;
20711;SDS011;10517;50.742;4.224;2023-08-08T13:12:40;2.30;;;2.20;;
20711;SDS011;10517;50.742;4.224;2023-08-08T13:15:06;2.20;;;2.10;;
20711;SDS011;10517;50.742;4.224;2023-08-08T13:17:32;2.58;;;2.35;;
20711;SDS011;10517;50.742;4.224;2023-08-08T13:19:58;2.97;;;2.17;;
20711;SDS011;10517;50.742;4.224;2023-08-08T13:22:24;2.55;;;2.35;;
20711;SDS011;10517;50.742;4.224;2023-08-08T13:24:49;2.35;;;2.25;;
20711;SDS011;10517;50.742;4.224;2023-08-08T13:27:15;2.25;;;2.15;;
20711;SDS011;10517;50.742;4.224;2023-08-08T13:29:41;2.55;;;2.30;;
20711;SDS011;10517;50.742;4.224;2023-08-08T13:32:07;2.40;;;2.30;;
20711;SDS011;10517;50.742;4.224;2023-08-08T13:34:32;2.50;;;2.40;;
20711;SDS011;10517;50.742;4.224;2023-08-08T13:36:59;2.78;;;2.63;;
20711;SDS011;10517;50.742;4.224;2023-08-08T13:39:24;3.50;;;2.47;;
20711;SDS011;10517;50.742;4.224;2023-08-08T13:41:50;2.72;;;2.55;;
20711;SDS011;10517;50.742;4.224;2023-08-08T13:44:16;2.50;;;2.38;;
20711;SDS011;10517;50.742;4.224;2023-08-08T13:46:42;2.70;;;2.50;;
20711;SDS011;10517;50.742;4.224;2023-08-08T13:49:07;2.45;;;2.35;;
20711;SDS011;10517;50.742;4.224;2023-08-08T13:51:33;2.35;;;2.25;;
20711;SDS011;10517;50.742;4.224;2023-08-08T13:53:59;2.65;;;2.45;;
20711;SDS011;10517;50.742;4.224;2023-08-08T13:56:25;2.40;;;2.30;;
20711;SDS011;10517;50.742;4.224;2023-08-08T13:58:50;2.78;;;2.67;;
20711;SDS011;10517;50.742;4.224;2023-08-08T14:01:16;6.32;;;3.08;;
20711;SDS011;10517;50.742;4.224;2023-08-08T14:03:42;2.80;;;2.70;;
20711;SDS011;10517;50.742;4.224;2023-08-08T14:06:09;2.70;;;2.53;;
20711;SDS011;10517;50.742;4.224;2023-08-08T14:08:34;3.25;;;2.78;;
20711;SDS011;10517;50.742;4.224;2023-08-08T14:11:00;2.60;;;2.42;;
20711;SDS011;10517;50.742;4.224;2023-08-08T14:13:26;2.47;;;2.38;;
20711;SDS011;10517;50.742;4.224;2023-08-08T14:15:52;2.70;;;2.60;;
20711;SDS011;10517;50.742;4.224;2023-08-08T14:18:17;2.78;;;2.58;;
20711;SDS011;10517;50.742;4.224;2023-08-08T14:20:44;2.40;;;2.30;;
20711;SDS011;10517;50.742;4.224;2023-08-08T14:23:09;2.47;;;2.38;;
20711;SDS011;10517;50.742;4.224;2023-08-08T14:25:35;5.53;;;2.75;;
20711;SDS011;10517;50.742;4.224;2023-08-08T14:28:01;3.53;;;2.45;;
20711;SDS011;10517;50.742;4.224;2023-08-08T14:30:29;3.25;;;2.95;;
20711;SDS011;10517;50.742;4.224;2023-08-08T14:32:55;2.70;;;2.60;;
20711;SDS011;10517;50.742;4.224;2023-08-08T14:35:21;2.60;;;2.38;;
20711;SDS011;10517;50.742;4.224;2023-08-08T14:37:47;2.40;;;2.30;;
20711;SDS011;10517;50.742;4.224;2023-08-08T14:40:13;2.47;;;2.38;;
20711;SDS011;10517;50.742;4.224;2023-08-08T14:42:39;2.47;;;2.30;;
20711;SDS011;10517;50.742;4.224;2023-08-08T14:45:05;2.88;;;2.67;;
20711;SDS011;10517;50.742;4.224;2023-08-08T14:47:31;2.80;;;2.13;;
20711;SDS011;10517;50.742;4.224;2023-08-08T14:49:57;2.47;;;2.38;;
20711;SDS011;10517;50.742;4.224;2023-08-08T14:52:22;2.30;;;2.20;;